createdAt,value
2018-09-12T00:00:31.974Z,0.00
2018-09-12T00:01:53.291Z,0.00
2018-09-12T00:02:53.523Z,0.00
2018-09-12T00:03:53.873Z,0.00
2018-09-12T00:05:14.966Z,0.00
2018-09-12T00:06:36.194Z,0.00
2018-09-12T00:07:36.713Z,0.00
2018-09-12T00:08:37.091Z,0.00
2018-09-12T00:09:36.765Z,0.00
2018-09-12T00:10:36.970Z,0.00
2018-09-12T00:11:36.179Z,0.00
2018-09-12T00:12:36.044Z,0.00
2018-09-12T00:13:36.508Z,0.00
2018-09-12T00:14:37.047Z,0.00
2018-09-12T00:15:36.057Z,0.00
2018-09-12T00:16:57.120Z,0.00
2018-09-12T00:17:57.312Z,0.00
2018-09-12T00:19:39.616Z,0.00
2018-09-12T00:20:40.786Z,0.00
2018-09-12T00:21:39.809Z,0.00
2018-09-12T00:23:01.137Z,0.00
2018-09-12T00:24:22.418Z,0.00
2018-09-12T00:25:22.746Z,0.00
2018-09-12T00:26:23.009Z,0.00
2018-09-12T00:27:44.160Z,0.00
2018-09-12T00:29:05.199Z,0.00
2018-09-12T00:30:05.545Z,0.00
2018-09-12T00:31:05.901Z,0.00
2018-09-12T00:32:05.961Z,0.00
2018-09-12T00:33:05.141Z,0.00
2018-09-12T00:34:05.211Z,0.00
2018-09-12T00:35:05.288Z,0.00
2018-09-12T00:36:05.625Z,0.00
2018-09-12T00:37:06.054Z,0.00
2018-09-12T00:38:26.412Z,0.00
2018-09-12T00:39:26.551Z,0.00
2018-09-12T00:40:26.762Z,0.00
2018-09-12T00:41:26.994Z,0.00
2018-09-12T00:42:27.138Z,0.00
2018-09-12T00:43:27.232Z,0.00
2018-09-12T00:44:26.731Z,0.00
2018-09-12T00:45:26.941Z,0.00
2018-09-12T00:46:27.362Z,0.00
2018-09-12T00:47:26.746Z,0.00
2018-09-12T00:48:27.306Z,0.00
2018-09-12T00:49:47.512Z,0.00
2018-09-12T00:50:47.843Z,0.00
2018-09-12T00:51:47.960Z,0.00
2018-09-12T00:52:48.202Z,0.00
2018-09-12T00:53:48.488Z,0.00
2018-09-12T00:54:47.828Z,0.00
2018-09-12T00:55:48.142Z,0.00
2018-09-12T00:57:09.749Z,0.00
2018-09-12T00:58:09.060Z,0.00
2018-09-12T00:59:09.238Z,0.00
2018-09-12T01:00:09.572Z,0.00
2018-09-12T01:01:09.244Z,0.00
2018-09-12T01:02:09.549Z,0.00
2018-09-12T01:03:09.046Z,0.00
2018-09-12T01:04:09.292Z,0.00
2018-09-12T01:05:09.505Z,0.00
2018-09-12T01:06:08.881Z,0.00
2018-09-12T01:07:09.060Z,0.00
2018-09-12T01:08:30.295Z,0.00
2018-09-12T01:09:30.712Z,0.00
2018-09-12T01:10:30.904Z,0.00
2018-09-12T01:11:31.380Z,0.00
2018-09-12T01:12:32.702Z,0.00
2018-09-12T01:13:31.785Z,0.00
2018-09-12T01:14:31.121Z,0.00
2018-09-12T01:15:51.657Z,0.00
2018-09-12T01:16:52.477Z,0.00
2018-09-12T01:18:12.797Z,0.00
2018-09-12T01:19:13.667Z,0.00
2018-09-12T01:20:13.089Z,0.00
2018-09-12T01:21:14.567Z,0.00
2018-09-12T01:22:12.809Z,0.00
2018-09-12T01:23:13.708Z,0.00
2018-09-12T01:24:13.183Z,0.00
2018-09-12T01:25:13.550Z,0.00
2018-09-12T01:26:13.775Z,0.00
2018-09-12T01:27:13.189Z,0.00
2018-09-12T01:28:13.708Z,0.00
2018-09-12T01:29:13.260Z,0.00
2018-09-12T01:30:37.165Z,0.00
2018-09-12T01:31:37.622Z,0.00
2018-09-12T01:32:36.981Z,0.00
2018-09-12T01:33:37.046Z,0.00
2018-09-12T01:34:58.293Z,0.00
2018-09-12T01:35:58.489Z,0.00
2018-09-12T01:36:58.890Z,0.00
2018-09-12T01:37:59.237Z,0.00
2018-09-12T01:38:58.335Z,0.00
2018-09-12T01:39:58.703Z,0.00
2018-09-12T01:40:59.029Z,0.00
2018-09-12T01:42:20.437Z,0.00
2018-09-12T01:43:20.601Z,0.00
2018-09-12T01:44:20.876Z,0.00
2018-09-12T01:45:21.136Z,0.00
2018-09-12T01:46:20.484Z,0.00
2018-09-12T01:47:41.573Z,0.00
2018-09-12T01:48:41.657Z,0.00
2018-09-12T01:50:02.740Z,0.00
2018-09-12T01:51:02.854Z,0.00
2018-09-12T01:52:23.976Z,0.00
2018-09-12T01:53:23.989Z,0.00
2018-09-12T01:54:24.167Z,0.00
2018-09-12T01:55:24.554Z,0.00
2018-09-12T01:56:24.702Z,0.00
2018-09-12T01:57:24.959Z,0.00
2018-09-12T01:58:45.105Z,0.00
2018-09-12T01:59:45.371Z,0.00
2018-09-12T02:00:45.794Z,0.00
2018-09-12T02:01:45.981Z,0.00
2018-09-12T02:02:45.480Z,0.00
2018-09-12T02:03:45.621Z,0.00
2018-09-12T02:04:45.935Z,0.00
2018-09-12T02:05:46.209Z,0.00
2018-09-12T02:06:45.198Z,0.00
2018-09-12T02:07:45.552Z,0.00
2018-09-12T02:08:45.898Z,0.00
2018-09-12T02:09:45.942Z,0.00
2018-09-12T02:10:46.059Z,0.00
2018-09-12T02:12:06.336Z,0.00
2018-09-12T02:13:06.787Z,0.00
2018-09-12T02:14:07.233Z,0.00
2018-09-12T02:15:06.546Z,0.00
2018-09-12T02:16:06.648Z,0.00
2018-09-12T02:17:06.726Z,0.00
2018-09-12T02:18:07.037Z,0.00
2018-09-12T02:19:07.349Z,0.00
2018-09-12T02:20:06.622Z,0.00
2018-09-12T02:21:06.904Z,0.00
2018-09-12T02:22:07.010Z,0.00
2018-09-12T02:23:28.466Z,0.00
2018-09-12T02:24:28.677Z,0.00
2018-09-12T02:25:28.895Z,0.00
2018-09-12T02:26:29.013Z,0.00
2018-09-12T02:27:29.381Z,0.00
2018-09-12T02:28:28.317Z,0.00
2018-09-12T02:29:28.396Z,0.00
2018-09-12T02:30:28.657Z,0.00
2018-09-12T02:31:28.564Z,0.00
2018-09-12T02:32:28.799Z,0.00
2018-09-12T02:33:29.100Z,0.00
2018-09-12T02:34:29.426Z,0.00
2018-09-12T02:35:28.637Z,0.00
2018-09-12T02:36:28.723Z,0.00
2018-09-12T02:37:28.737Z,0.00
2018-09-12T02:38:28.955Z,0.00
2018-09-12T02:39:49.811Z,0.00
2018-09-12T02:41:11.125Z,0.00
2018-09-12T02:42:11.436Z,0.00
2018-09-12T02:43:11.769Z,0.00
2018-09-12T02:44:11.944Z,0.00
2018-09-12T02:45:12.252Z,0.00
2018-09-12T02:46:11.233Z,0.00
2018-09-12T02:47:11.574Z,0.00
2018-09-12T02:48:11.771Z,0.00
2018-09-12T02:49:11.911Z,0.00
2018-09-12T02:50:12.084Z,0.00
2018-09-12T02:51:11.263Z,0.00
2018-09-12T02:52:11.270Z,0.00
2018-09-12T02:53:11.306Z,0.00
2018-09-12T02:54:11.399Z,0.00
2018-09-12T02:55:11.778Z,0.00
2018-09-12T02:56:11.930Z,0.00
2018-09-12T02:57:12.157Z,0.00
2018-09-12T02:58:11.247Z,0.00
2018-09-12T03:00:14.060Z,0.00
2018-09-12T03:01:14.186Z,0.00
2018-09-12T03:02:14.461Z,0.00
2018-09-12T03:03:14.503Z,0.00
2018-09-12T03:04:14.706Z,0.00
2018-09-12T03:05:14.797Z,0.00
2018-09-12T03:06:15.064Z,0.00
2018-09-12T03:07:34.974Z,0.00
2018-09-12T03:08:36.236Z,0.00
2018-09-12T03:09:35.501Z,0.00
2018-09-12T03:10:35.814Z,0.00
2018-09-12T03:11:34.881Z,0.00
2018-09-12T03:12:34.896Z,0.00
2018-09-12T03:13:35.245Z,0.00
2018-09-12T03:14:35.300Z,0.00
2018-09-12T03:15:35.461Z,0.00
2018-09-12T03:16:56.366Z,0.00
2018-09-12T03:17:56.664Z,0.00
2018-09-12T03:18:56.751Z,0.00
2018-09-12T03:19:57.022Z,0.00
2018-09-12T03:20:57.973Z,0.00
2018-09-12T03:21:57.042Z,0.00
2018-09-12T03:22:57.096Z,0.00
2018-09-12T03:23:57.310Z,0.00
2018-09-12T03:24:57.299Z,0.00
2018-09-12T03:25:57.299Z,0.00
2018-09-12T03:26:57.430Z,0.00
2018-09-12T03:27:56.364Z,0.00
2018-09-12T03:28:56.695Z,0.00
2018-09-12T03:29:57.024Z,0.00
2018-09-12T03:30:57.188Z,0.00
2018-09-12T03:31:57.090Z,0.00
2018-09-12T03:32:57.232Z,0.00
2018-09-12T03:33:57.353Z,0.00
2018-09-12T03:34:56.728Z,0.00
2018-09-12T03:35:57.154Z,0.00
2018-09-12T03:36:57.480Z,0.00
2018-09-12T03:37:56.855Z,0.00
2018-09-12T03:38:56.969Z,0.00
2018-09-12T03:39:57.150Z,0.00
2018-09-12T03:40:58.040Z,0.00
2018-09-12T03:41:57.044Z,0.00
2018-09-12T03:42:57.360Z,0.00
2018-09-12T03:43:56.317Z,0.00
2018-09-12T03:44:56.594Z,0.00
2018-09-12T03:45:56.927Z,0.00
2018-09-12T03:46:57.081Z,0.00
2018-09-12T03:48:18.207Z,0.00
2018-09-12T03:49:18.492Z,0.00
2018-09-12T03:50:18.784Z,0.00
2018-09-12T03:51:18.871Z,0.00
2018-09-12T03:52:19.054Z,0.00
2018-09-12T03:53:18.298Z,0.00
2018-09-12T03:54:18.601Z,0.00
2018-09-12T03:55:18.923Z,0.00
2018-09-12T03:56:18.091Z,0.00
2018-09-12T03:57:18.162Z,0.00
2018-09-12T03:58:18.311Z,0.00
2018-09-12T03:59:18.367Z,0.00
2018-09-12T04:00:18.500Z,0.00
2018-09-12T04:01:18.742Z,0.00
2018-09-12T04:02:18.907Z,0.00
2018-09-12T04:03:18.346Z,0.00
2018-09-12T04:04:39.087Z,0.00
2018-09-12T04:05:39.139Z,0.00
2018-09-12T04:06:39.245Z,0.00
2018-09-12T04:07:39.295Z,0.00
2018-09-12T04:08:39.428Z,0.00
2018-09-12T04:09:39.500Z,0.00
2018-09-12T04:11:00.511Z,0.00
2018-09-12T04:12:00.771Z,0.00
2018-09-12T04:13:00.899Z,0.00
2018-09-12T04:14:21.918Z,0.00
2018-09-12T04:15:21.911Z,0.00
2018-09-12T04:16:22.017Z,0.00
2018-09-12T04:17:22.100Z,0.00
2018-09-12T04:18:22.240Z,0.00
2018-09-12T04:19:22.443Z,0.00
2018-09-12T04:20:30.444Z,1.00
2018-09-12T04:22:14.044Z,1.00
2018-09-12T04:23:14.087Z,1.00
2018-09-12T04:24:14.306Z,1.00
2018-09-12T04:25:38.324Z,1.00
2018-09-12T04:26:56.259Z,1.00
2018-09-12T04:27:56.244Z,2.00
2018-09-12T04:28:56.521Z,2.00
2018-09-12T04:29:56.402Z,2.00
2018-09-12T04:30:56.635Z,3.00
2018-09-12T04:31:57.125Z,3.00
2018-09-12T04:32:56.346Z,4.00
2018-09-12T04:33:56.417Z,4.00
2018-09-12T04:34:57.112Z,5.00
2018-09-12T04:35:56.529Z,5.00
2018-09-12T04:36:56.660Z,6.00
2018-09-12T04:37:56.780Z,8.00
2018-09-12T04:38:57.011Z,9.00
2018-09-12T04:39:56.964Z,12.00
2018-09-12T04:40:57.180Z,14.00
2018-09-12T04:41:56.340Z,14.00
2018-09-12T04:42:56.697Z,17.00
2018-09-12T04:43:56.952Z,22.00
2018-09-12T04:45:18.417Z,28.00
2018-09-12T04:46:39.372Z,37.00
2018-09-12T04:47:40.297Z,41.00
2018-09-12T04:48:40.585Z,43.00
2018-09-12T04:49:39.900Z,53.00
2018-09-12T04:50:40.119Z,62.00
2018-09-12T04:51:40.160Z,64.00
2018-09-12T04:52:40.571Z,72.00
2018-09-12T04:53:39.787Z,90.00
2018-09-12T04:54:40.109Z,99.00
2018-09-12T04:55:40.143Z,95.00
2018-09-12T04:56:40.245Z,114.00
2018-09-12T04:57:39.565Z,124.00
2018-09-12T04:58:39.716Z,123.00
2018-09-12T04:59:40.021Z,159.00
2018-09-12T05:01:01.988Z,180.00
2018-09-12T05:02:01.235Z,192.00
2018-09-12T05:03:22.305Z,206.00
2018-09-12T05:04:22.556Z,197.00
2018-09-12T05:05:22.738Z,208.00
2018-09-12T05:06:44.222Z,232.00
2018-09-12T05:07:44.995Z,254.00
2018-09-12T05:08:45.013Z,267.00
2018-09-12T05:09:44.523Z,272.00
2018-09-12T05:10:45.383Z,313.00
2018-09-12T05:11:45.064Z,268.00
2018-09-12T05:12:44.508Z,313.00
2018-09-12T05:13:44.883Z,318.00
2018-09-12T05:14:45.141Z,338.00
2018-09-12T05:15:45.276Z,341.00
2018-09-12T05:16:45.119Z,346.00
2018-09-12T05:17:44.356Z,414.00
2018-09-12T05:18:44.592Z,373.00
2018-09-12T05:19:44.828Z,385.00
2018-09-12T05:20:44.817Z,450.00
2018-09-12T05:21:45.274Z,513.00
2018-09-12T05:22:44.552Z,483.00
2018-09-12T05:23:45.396Z,636.00
2018-09-12T05:24:44.515Z,549.00
2018-09-12T05:25:44.668Z,461.00
2018-09-12T05:26:44.941Z,492.00
2018-09-12T05:27:44.533Z,494.00
2018-09-12T05:28:45.831Z,488.00
2018-09-12T05:29:44.941Z,484.00
2018-09-12T05:30:45.319Z,523.00
2018-09-12T05:31:45.568Z,550.00
2018-09-12T05:32:45.043Z,604.00
2018-09-12T05:33:45.173Z,634.00
2018-09-12T05:34:44.301Z,689.00
2018-09-12T05:35:44.407Z,705.00
2018-09-12T05:36:44.578Z,788.00
2018-09-12T05:38:05.874Z,672.00
2018-09-12T05:39:06.241Z,660.00
2018-09-12T05:40:06.604Z,743.00
2018-09-12T05:41:27.787Z,743.00
2018-09-12T05:42:48.854Z,803.00
2018-09-12T05:43:49.170Z,1058.00
2018-09-12T05:44:49.450Z,1095.00
2018-09-12T05:45:49.728Z,1051.00
2018-09-12T05:46:49.162Z,1078.00
2018-09-12T05:47:49.501Z,1158.00
2018-09-12T05:48:48.838Z,1336.00
2018-09-12T05:49:49.057Z,1573.00
2018-09-12T05:50:49.252Z,1434.00
2018-09-12T05:51:49.481Z,1369.00
2018-09-12T05:52:49.915Z,1481.00
2018-09-12T05:53:49.182Z,1476.00
2018-09-12T05:54:49.608Z,1568.00
2018-09-12T05:55:49.548Z,1573.00
2018-09-12T05:56:49.871Z,1859.00
2018-09-12T05:57:48.864Z,2172.00
2018-09-12T05:58:49.406Z,1986.00
2018-09-12T05:59:49.599Z,2097.00
2018-09-12T06:01:30.944Z,1927.00
2018-09-12T06:02:31.411Z,2251.00
2018-09-12T06:03:31.932Z,2753.00
2018-09-12T06:04:31.214Z,3057.00
2018-09-12T06:05:31.422Z,2560.00
2018-09-12T06:06:31.829Z,2331.00
2018-09-12T06:07:31.206Z,2510.00
2018-09-12T06:08:31.584Z,2505.00
2018-09-12T06:09:31.915Z,2543.00
2018-09-12T06:10:31.241Z,2433.00
2018-09-12T06:11:31.597Z,2921.00
2018-09-12T06:12:31.697Z,2944.00
2018-09-12T06:13:31.100Z,2722.00
2018-09-12T06:14:31.624Z,2768.00
2018-09-12T06:15:31.953Z,2456.00
2018-09-12T06:16:31.103Z,2928.00
2018-09-12T06:17:31.116Z,3060.00
2018-09-12T06:18:31.602Z,2895.00
2018-09-12T06:19:32.016Z,2863.00
2018-09-12T06:20:32.096Z,2996.00
2018-09-12T06:21:31.235Z,3280.00
2018-09-12T06:22:31.709Z,4190.00
2018-09-12T06:23:31.860Z,4549.00
2018-09-12T06:24:31.155Z,3427.00
2018-09-12T06:25:31.565Z,3365.00
2018-09-12T06:26:31.738Z,4336.00
2018-09-12T06:27:31.036Z,4892.00
2018-09-12T06:28:31.343Z,5008.00
2018-09-12T06:29:52.542Z,4548.00
2018-09-12T06:30:53.072Z,4585.00
2018-09-12T06:31:53.679Z,4718.00
2018-09-12T06:32:52.765Z,4648.00
2018-09-12T06:33:53.418Z,4905.00
2018-09-12T06:34:52.711Z,4865.00
2018-09-12T06:35:52.994Z,4272.00
2018-09-12T06:36:53.413Z,4210.00
2018-09-12T06:37:53.389Z,3357.00
2018-09-12T06:38:52.504Z,3763.00
2018-09-12T06:39:52.825Z,5172.00
2018-09-12T06:40:53.814Z,6352.00
2018-09-12T06:41:53.150Z,6091.00
2018-09-12T06:42:53.437Z,5030.00
2018-09-12T06:43:52.519Z,4936.00
2018-09-12T06:44:52.882Z,5520.00
2018-09-12T06:45:53.124Z,5906.00
2018-09-12T06:46:52.462Z,5771.00
2018-09-12T06:47:52.723Z,5946.00
2018-09-12T06:48:53.083Z,7442.00
2018-09-12T06:49:52.590Z,8591.00
2018-09-12T06:50:52.772Z,9784.00
2018-09-12T06:51:52.827Z,9943.00
2018-09-12T06:52:53.705Z,9933.00
2018-09-12T06:53:53.014Z,10170.00
2018-09-12T06:54:53.478Z,10637.00
2018-09-12T06:55:52.739Z,10631.00
2018-09-12T06:56:53.036Z,11339.00
2018-09-12T06:57:53.445Z,15045.00
2018-09-12T06:58:52.931Z,16107.00
2018-09-12T06:59:53.447Z,15345.00
2018-09-12T07:00:52.849Z,10685.00
2018-09-12T07:03:29.606Z,10184.00
2018-09-12T07:04:29.723Z,7215.00
2018-09-12T07:05:29.956Z,9988.00
2018-09-12T07:06:30.486Z,15495.00
2018-09-12T07:07:29.868Z,20536.00
2018-09-12T07:08:30.388Z,13527.00
2018-09-12T07:09:29.954Z,8151.00
2018-09-12T07:10:30.449Z,8060.00
2018-09-12T07:11:51.020Z,7307.00
2018-09-12T07:12:51.581Z,5891.00
2018-09-12T07:13:50.841Z,8004.00
2018-09-12T07:14:51.018Z,10656.00
2018-09-12T07:15:51.437Z,11356.00
2018-09-12T07:16:51.003Z,14620.00
2018-09-12T07:17:51.526Z,18080.00
2018-09-12T07:18:50.759Z,12448.00
2018-09-12T07:19:51.204Z,11099.00
2018-09-12T07:20:51.579Z,10886.00
2018-09-12T07:21:50.945Z,10656.00
2018-09-12T07:22:51.395Z,11242.00
2018-09-12T07:23:51.887Z,10731.00
2018-09-12T07:24:51.149Z,10008.00
2018-09-12T07:25:51.498Z,8831.00
2018-09-12T07:26:50.821Z,8932.00
2018-09-12T07:28:13.936Z,8067.00
2018-09-12T07:29:14.796Z,12717.00
2018-09-12T07:30:14.803Z,12742.00
2018-09-12T07:31:14.248Z,8076.00
2018-09-12T07:32:14.658Z,5666.00
2018-09-12T07:33:14.101Z,11831.00
2018-09-12T07:34:14.734Z,17240.00
2018-09-12T07:35:14.853Z,15799.00
2018-09-12T07:36:35.435Z,17272.00
2018-09-12T07:37:35.819Z,13108.00
2018-09-12T07:38:35.911Z,11544.00
2018-09-12T07:39:36.142Z,10311.00
2018-09-12T07:40:35.427Z,11165.00
2018-09-12T07:41:56.662Z,16721.00
2018-09-12T07:42:56.904Z,15024.00
2018-09-12T07:43:57.159Z,8785.00
2018-09-12T07:44:57.360Z,6531.00
2018-09-12T07:46:18.411Z,6748.00
2018-09-12T07:47:18.989Z,8213.00
2018-09-12T07:48:19.264Z,10343.00
2018-09-12T07:49:18.637Z,10997.00
2018-09-12T07:50:18.843Z,11650.00
2018-09-12T07:51:19.083Z,13870.00
2018-09-12T07:52:19.490Z,15612.00
2018-09-12T07:53:18.670Z,14349.00
2018-09-12T07:54:19.003Z,12833.00
2018-09-12T07:55:19.446Z,14614.00
2018-09-12T07:56:18.865Z,17672.00
2018-09-12T07:57:19.351Z,17976.00
2018-09-12T07:58:40.113Z,16527.00
2018-09-12T07:59:40.818Z,15839.00
2018-09-12T08:00:40.519Z,15824.00
2018-09-12T08:01:40.356Z,16065.00
2018-09-12T08:02:40.859Z,16909.00
2018-09-12T08:04:01.535Z,13170.00
2018-09-12T08:05:02.065Z,11094.00
2018-09-12T08:06:01.194Z,9576.00
2018-09-12T08:07:01.525Z,9226.00
2018-09-12T08:08:02.019Z,7328.00
2018-09-12T08:09:01.397Z,7427.00
2018-09-12T08:10:22.826Z,7827.00
2018-09-12T08:11:23.136Z,8429.00
2018-09-12T08:12:23.348Z,9160.00
2018-09-12T08:13:23.742Z,10032.00
2018-09-12T08:14:23.292Z,11527.00
2018-09-12T08:15:23.710Z,11509.00
2018-09-12T08:16:23.057Z,11170.00
2018-09-12T08:17:23.177Z,10834.00
2018-09-12T08:18:23.638Z,9103.00
2018-09-12T08:19:23.162Z,9258.00
2018-09-12T08:20:23.492Z,10269.00
2018-09-12T08:21:43.763Z,7732.00
2018-09-12T08:23:04.955Z,9216.00
2018-09-12T08:24:05.049Z,8136.00
2018-09-12T08:25:05.598Z,8809.00
2018-09-12T08:26:05.949Z,8656.00
2018-09-12T08:27:05.257Z,8504.00
2018-09-12T08:28:05.689Z,8138.00
2018-09-12T08:29:05.227Z,9118.00
2018-09-12T08:30:05.357Z,9618.00
2018-09-12T08:31:05.591Z,9777.00
2018-09-12T08:32:06.372Z,10991.00
2018-09-12T08:33:05.449Z,10477.00
2018-09-12T08:34:05.667Z,12470.00
2018-09-12T08:35:05.367Z,15158.00
2018-09-12T08:36:05.684Z,16149.00
2018-09-12T08:37:05.164Z,13075.00
2018-09-12T08:38:05.356Z,17616.00
2018-09-12T08:39:27.175Z,18240.00
2018-09-12T08:40:27.529Z,15409.00
2018-09-12T08:41:27.700Z,19800.00
2018-09-12T08:42:28.073Z,20064.00
2018-09-12T08:43:27.355Z,16713.00
2018-09-12T08:44:27.576Z,14226.00
2018-09-12T08:45:27.881Z,9820.00
2018-09-12T08:46:27.573Z,8665.00
2018-09-12T08:47:28.026Z,8115.00
2018-09-12T08:48:27.166Z,6474.00
2018-09-12T08:49:27.475Z,4188.00
2018-09-12T08:50:48.844Z,3166.00
2018-09-12T08:51:49.163Z,2978.00
2018-09-12T08:52:49.524Z,2483.00
2018-09-12T08:54:51.860Z,2445.00
2018-09-12T08:55:52.243Z,2512.00
2018-09-12T08:56:52.861Z,2760.00
2018-09-12T08:57:52.419Z,2802.00
2018-09-12T08:58:52.856Z,2955.00
2018-09-12T08:59:52.067Z,2779.00
2018-09-12T09:00:52.297Z,3143.00
2018-09-12T09:02:34.010Z,8486.00
2018-09-12T09:03:55.230Z,7328.00
2018-09-12T09:04:55.754Z,4746.00
2018-09-12T09:05:55.956Z,5661.00
2018-09-12T09:06:56.318Z,6387.00
2018-09-12T09:07:55.632Z,6450.00
2018-09-12T09:08:55.959Z,6677.00
2018-09-12T09:09:55.237Z,5996.00
2018-09-12T09:10:55.517Z,7386.00
2018-09-12T09:11:55.994Z,8219.00
2018-09-12T09:12:55.181Z,6844.00
2018-09-12T09:13:55.515Z,6358.00
2018-09-12T09:14:56.120Z,6888.00
2018-09-12T09:16:16.502Z,9692.00
2018-09-12T09:17:37.835Z,6460.00
2018-09-12T09:18:37.993Z,4991.00
2018-09-12T09:19:38.230Z,6411.00
2018-09-12T09:20:59.400Z,7078.00
2018-09-12T09:22:20.631Z,6195.00
2018-09-12T09:23:21.026Z,5947.00
2018-09-12T09:24:42.377Z,5872.00
2018-09-12T09:25:42.830Z,5611.00
2018-09-12T09:26:43.100Z,6074.00
2018-09-12T09:28:04.430Z,6735.00
2018-09-12T09:29:03.642Z,5518.00
2018-09-12T09:30:03.864Z,4927.00
2018-09-12T09:31:25.039Z,5782.00
2018-09-12T09:32:46.571Z,7125.00
2018-09-12T09:33:46.755Z,8292.00
2018-09-12T09:34:46.985Z,9525.00
2018-09-12T09:35:47.374Z,9939.00
2018-09-12T09:36:47.094Z,9270.00
2018-09-12T09:37:46.390Z,9453.00
2018-09-12T09:38:47.339Z,9283.00
2018-09-12T09:40:07.493Z,8529.00
2018-09-12T09:41:07.988Z,7929.00
2018-09-12T09:42:08.218Z,8277.00
2018-09-12T09:43:08.817Z,8444.00
2018-09-12T09:44:28.809Z,7985.00
2018-09-12T09:45:29.032Z,8108.00
2018-09-12T09:46:29.364Z,7925.00
2018-09-12T09:47:50.578Z,7679.00
2018-09-12T09:49:12.196Z,7469.00
2018-09-12T09:50:12.404Z,6907.00
2018-09-12T09:51:12.621Z,6629.00
2018-09-12T09:52:12.857Z,6259.00
2018-09-12T09:53:12.438Z,6177.00
2018-09-12T09:54:13.135Z,6615.00
2018-09-12T09:55:34.050Z,6801.00
2018-09-12T09:56:55.166Z,7978.00
2018-09-12T09:57:55.354Z,8459.00
2018-09-12T09:58:55.683Z,8416.00
2018-09-12T09:59:55.912Z,7957.00
2018-09-12T10:00:56.086Z,8642.00
2018-09-12T10:01:55.354Z,8792.00
2018-09-12T10:02:55.539Z,7718.00
2018-09-12T10:03:56.727Z,6247.00
2018-09-12T10:04:56.027Z,5724.00
2018-09-12T10:05:55.570Z,5904.00
2018-09-12T10:06:55.978Z,6454.00
2018-09-12T10:07:55.827Z,6950.00
2018-09-12T10:08:56.073Z,6707.00
2018-09-12T10:09:55.278Z,6419.00
2018-09-12T10:10:55.682Z,6450.00
2018-09-12T10:11:56.071Z,6118.00
2018-09-12T10:13:16.645Z,6350.00
2018-09-12T10:14:16.940Z,5990.00
2018-09-12T10:15:17.121Z,5145.00
2018-09-12T10:16:17.520Z,5077.00
2018-09-12T10:17:38.579Z,4730.00
2018-09-12T10:18:59.967Z,5002.00
2018-09-12T10:20:22.683Z,5240.00
2018-09-12T10:21:23.099Z,4710.00
2018-09-12T10:22:23.216Z,5109.00
2018-09-12T10:23:22.419Z,6273.00
2018-09-12T10:24:22.907Z,5552.00
2018-09-12T10:25:23.401Z,6815.00
2018-09-12T10:26:22.634Z,8730.00
2018-09-12T10:27:22.837Z,8834.00
2018-09-12T10:28:44.357Z,7840.00
2018-09-12T10:29:44.731Z,8007.00
2018-09-12T10:30:45.274Z,8174.00
2018-09-12T10:32:07.614Z,8335.00
2018-09-12T10:33:07.795Z,9073.00
2018-09-12T10:34:07.997Z,10666.00
2018-09-12T10:35:08.218Z,12033.00
2018-09-12T10:36:08.679Z,11512.00
2018-09-12T10:37:07.920Z,11811.00
2018-09-12T10:38:52.339Z,13601.00
2018-09-12T10:39:52.459Z,11776.00
2018-09-12T10:40:52.676Z,12978.00
2018-09-12T10:41:53.265Z,11738.00
2018-09-12T10:42:52.422Z,16346.00
2018-09-12T10:44:13.781Z,16783.00
2018-09-12T10:45:14.135Z,16560.00
2018-09-12T10:46:14.573Z,12335.00
2018-09-12T10:47:14.704Z,13492.00
2018-09-12T10:48:13.886Z,18512.00
2018-09-12T10:49:14.275Z,25120.00
2018-09-12T10:50:14.479Z,26888.00
2018-09-12T10:51:14.530Z,25688.00
2018-09-12T10:52:14.157Z,23128.00
2018-09-12T10:53:14.499Z,22216.00
2018-09-12T10:54:14.005Z,21320.00
2018-09-12T10:55:14.520Z,20928.00
2018-09-12T10:56:14.740Z,20840.00
2018-09-12T10:57:14.000Z,19136.00
2018-09-12T10:58:35.491Z,16236.00
2018-09-12T10:59:56.641Z,15276.00
2018-09-12T11:00:57.010Z,12550.00
2018-09-12T11:01:57.136Z,12993.00
2018-09-12T11:02:57.512Z,14096.00
2018-09-12T11:03:57.654Z,13979.00
2018-09-12T11:04:56.871Z,14232.00
2018-09-12T11:05:57.220Z,14477.00
2018-09-12T11:06:57.662Z,14671.00
2018-09-12T11:07:56.680Z,13809.00
2018-09-12T11:08:56.904Z,12328.00
2018-09-12T11:09:57.338Z,11171.00
2018-09-12T11:10:58.950Z,10167.00
2018-09-12T11:11:57.375Z,10001.00
2018-09-12T11:12:56.616Z,9336.00
2018-09-12T11:14:40.018Z,8353.00
2018-09-12T11:15:40.500Z,8072.00
2018-09-12T11:16:40.775Z,9307.00
2018-09-12T11:17:40.102Z,11076.00
2018-09-12T11:18:40.495Z,11464.00
2018-09-12T11:20:01.634Z,12711.00
2018-09-12T11:21:02.120Z,13724.00
2018-09-12T11:22:03.105Z,14167.00
2018-09-12T11:23:23.334Z,13596.00
2018-09-12T11:24:24.421Z,13489.00
2018-09-12T11:25:23.848Z,13167.00
2018-09-12T11:26:24.167Z,13487.00
2018-09-12T11:27:45.603Z,13827.00
2018-09-12T11:28:45.643Z,13311.00
2018-09-12T11:29:45.885Z,12765.00
2018-09-12T11:30:46.091Z,13213.00
2018-09-12T11:31:46.602Z,14531.00
2018-09-12T11:32:45.893Z,14706.00
2018-09-12T11:33:46.123Z,13632.00
2018-09-12T11:34:47.114Z,13017.00
2018-09-12T11:35:45.686Z,14751.00
2018-09-12T11:36:46.080Z,16785.00
2018-09-12T11:37:46.568Z,19016.00
2018-09-12T11:38:45.832Z,21376.00
2018-09-12T11:40:07.428Z,26768.00
2018-09-12T11:41:07.999Z,27968.00
2018-09-12T11:42:07.608Z,24192.00
2018-09-12T11:43:08.678Z,19408.00
2018-09-12T11:44:08.285Z,18200.00
2018-09-12T11:45:08.378Z,20480.00
2018-09-12T11:46:29.453Z,21536.00
2018-09-12T11:47:30.004Z,20008.00
2018-09-12T11:48:31.200Z,18128.00
2018-09-12T11:49:29.445Z,17608.00
2018-09-12T11:50:29.696Z,14036.00
2018-09-12T11:51:30.199Z,10973.00
2018-09-12T11:52:30.469Z,8606.00
2018-09-12T11:53:29.762Z,8330.00
2018-09-12T11:54:30.215Z,9097.00
2018-09-12T11:55:29.570Z,9192.00
2018-09-12T11:56:29.944Z,9392.00
2018-09-12T11:57:31.161Z,9700.00
2018-09-12T11:58:30.091Z,8550.00
2018-09-12T11:59:30.527Z,7134.00
2018-09-12T12:00:30.132Z,7023.00
2018-09-12T12:01:29.517Z,7426.00
2018-09-12T12:02:30.705Z,6719.00
2018-09-12T12:03:30.000Z,6262.00
2018-09-12T12:04:29.627Z,6271.00
2018-09-12T12:05:51.078Z,6411.00
2018-09-12T12:06:51.366Z,6545.00
2018-09-12T12:07:51.571Z,7521.00
2018-09-12T12:08:52.134Z,7081.00
2018-09-12T12:09:51.770Z,7201.00
2018-09-12T12:10:52.089Z,7402.00
2018-09-12T12:11:51.511Z,7028.00
2018-09-12T12:12:52.268Z,7308.00
2018-09-12T12:13:51.917Z,8289.00
2018-09-12T12:15:33.465Z,8586.00
2018-09-12T12:16:54.615Z,6957.00
2018-09-12T12:17:54.736Z,5885.00
2018-09-12T12:18:55.819Z,6443.00
2018-09-12T12:19:55.571Z,8013.00
2018-09-12T12:20:55.136Z,8241.00
2018-09-12T12:22:16.432Z,9134.00
2018-09-12T12:23:16.789Z,8831.00
2018-09-12T12:24:17.400Z,8092.00
2018-09-12T12:25:16.833Z,7763.00
2018-09-12T12:26:17.230Z,7871.00
2018-09-12T12:27:17.642Z,7971.00
2018-09-12T12:28:16.986Z,8166.00
2018-09-12T12:29:17.562Z,7985.00
2018-09-12T12:30:16.842Z,7370.00
2018-09-12T12:31:18.171Z,6697.00
2018-09-12T12:32:18.499Z,6300.00
2018-09-12T12:33:37.720Z,6072.00
2018-09-12T12:34:38.104Z,6168.00
2018-09-12T12:36:00.182Z,6678.00
2018-09-12T12:37:00.439Z,6978.00
2018-09-12T12:37:59.906Z,7109.00
2018-09-12T12:39:00.225Z,7197.00
2018-09-12T12:39:59.603Z,7670.00
2018-09-12T12:40:59.993Z,8682.00
2018-09-12T12:42:00.403Z,9693.00
2018-09-12T12:42:59.966Z,10656.00
2018-09-12T12:44:00.455Z,10674.00
2018-09-12T12:44:59.942Z,11097.00
2018-09-12T12:46:00.463Z,11864.00
2018-09-12T12:47:21.705Z,11128.00
2018-09-12T12:48:22.216Z,9969.00
2018-09-12T12:49:22.705Z,9786.00
2018-09-12T12:50:22.008Z,10240.00
2018-09-12T12:51:22.536Z,10302.00
2018-09-12T12:52:21.991Z,10198.00
2018-09-12T12:53:22.479Z,10797.00
2018-09-12T12:54:21.903Z,11505.00
2018-09-12T12:55:44.442Z,11088.00
2018-09-12T12:56:44.650Z,10330.00
2018-09-12T12:57:45.049Z,9853.00
2018-09-12T12:58:44.403Z,9762.00
2018-09-12T12:59:44.969Z,10011.00
2018-09-12T13:00:44.614Z,10136.00
2018-09-12T13:01:45.010Z,10653.00
2018-09-12T13:02:45.434Z,11534.00
2018-09-12T13:04:05.959Z,11364.00
2018-09-12T13:05:06.305Z,10467.00
2018-09-12T13:06:06.937Z,8909.00
2018-09-12T13:07:06.832Z,9680.00
2018-09-12T13:08:06.344Z,10506.00
2018-09-12T13:09:06.777Z,9594.00